Fayfield, Pennsylvania
Current Conditions -  °F | °C
As of 2:53 AM on Thursday 23 Oct 2014 (Local Time) from KTHV Reporting Station
Overcast Overcast  
Wind Chill: 52°   Ceiling: 2800
Heat Index: 52°   Visibility: 10mi
Dew Point: 43°   Wind: 10mph
Humidity: 71%   Direction: 320°NW
Pressure: 29.88"   Gusts: 20mph
Location:  39.9768°N, 76.6853°W
Report Text: KTHV 230653Z AUTO 32009G17KT 10SM OVC028 11/06 A2988 RMK AO2 RAB00E11 SLP119 P0000 T01110061
Loading
Personal Weather Stations






























Interactive Weather Map
Tropical Storm Tracking
New forecast layout! Learn more

10-Day Weather Forecast

Advertisements
Track Severe Weather on mobile